Terminal Aerodrome Forecast
Issued by NWS Midland/Odessa, TX

Home | Current Version | Previous Version | Text Only | Print | Product List | Glossary On
Versions: 1 2 3 4 5 6 7 8 9 10 11 12 13 14 15 16 17 18 19 20 21 22
000
FTUS44 KMAF 031909 AAA
TAFMAF
TAF AMD
KMAF 031909Z 0319/0418 10005KT P6SM SCT035 BKN050
     FM032100 12009KT P6SM SCT050 SCT200
     FM041200 12006KT P6SM SCT020 BKN100
     FM041500 16012KT P6SM SCT040 BKN100=

USA.gov is the U.S. government's official web portal to all federal, state and local government web resources and services.